sensor_id;sensor_type;location;lat;lon;timestamp;temperature;humidity
22813;DHT22;11573;51.334;3.244;2023-02-08T00:00:10;-1.40;99.90
22813;DHT22;11573;51.334;3.244;2023-02-08T00:02:37;-1.30;99.90
22813;DHT22;11573;51.334;3.244;2023-02-08T00:05:04;-1.40;99.90
22813;DHT22;11573;51.334;3.244;2023-02-08T00:07:32;-1.50;99.90
22813;DHT22;11573;51.334;3.244;2023-02-08T00:09:59;-1.50;99.90
22813;DHT22;11573;51.334;3.244;2023-02-08T00:12:26;-1.50;99.90
22813;DHT22;11573;51.334;3.244;2023-02-08T00:14:54;-1.50;99.90
22813;DHT22;11573;51.334;3.244;2023-02-08T00:17:21;-1.50;99.90
22813;DHT22;11573;51.334;3.244;2023-02-08T00:19:48;-1.50;99.90
22813;DHT22;11573;51.334;3.244;2023-02-08T00:22:15;-1.50;99.90
22813;DHT22;11573;51.334;3.244;2023-02-08T00:24:42;-1.50;99.90
22813;DHT22;11573;51.334;3.244;2023-02-08T00:27:09;-1.50;99.90
22813;DHT22;11573;51.334;3.244;2023-02-08T00:29:37;-1.50;99.90
22813;DHT22;11573;51.334;3.244;2023-02-08T00:32:04;-1.50;99.90
22813;DHT22;11573;51.334;3.244;2023-02-08T00:34:31;-1.60;99.90
22813;DHT22;11573;51.334;3.244;2023-02-08T00:36:58;-1.60;99.90
22813;DHT22;11573;51.334;3.244;2023-02-08T00:39:25;-1.60;99.90
22813;DHT22;11573;51.334;3.244;2023-02-08T00:41:52;-1.60;99.90
22813;DHT22;11573;51.334;3.244;2023-02-08T00:44:19;-1.60;99.90
22813;DHT22;11573;51.334;3.244;2023-02-08T00:46:46;-1.50;99.90
22813;DHT22;11573;51.334;3.244;2023-02-08T00:49:14;-1.50;99.90
22813;DHT22;11573;51.334;3.244;2023-02-08T00:51:41;-1.40;99.90
22813;DHT22;11573;51.334;3.244;2023-02-08T00:54:13;-1.40;99.90
22813;DHT22;11573;51.334;3.244;2023-02-08T00:56:40;-1.40;99.90
22813;DHT22;11573;51.334;3.244;2023-02-08T00:59:07;-1.40;99.90
22813;DHT22;11573;51.334;3.244;2023-02-08T01:01:35;-1.40;99.90
22813;DHT22;11573;51.334;3.244;2023-02-08T01:04:02;-1.50;99.90
22813;DHT22;11573;51.334;3.244;2023-02-08T01:06:30;-1.50;99.90
22813;DHT22;11573;51.334;3.244;2023-02-08T01:08:57;-1.50;99.90
22813;DHT22;11573;51.334;3.244;2023-02-08T01:11:25;-1.60;99.90
22813;DHT22;11573;51.334;3.244;2023-02-08T01:13:53;-1.60;99.90
22813;DHT22;11573;51.334;3.244;2023-02-08T01:16:26;-1.60;99.90
22813;DHT22;11573;51.334;3.244;2023-02-08T01:18:56;-1.60;99.90
22813;DHT22;11573;51.334;3.244;2023-02-08T01:21:26;-1.60;99.90
22813;DHT22;11573;51.334;3.244;2023-02-08T01:23:55;-1.60;99.90
22813;DHT22;11573;51.334;3.244;2023-02-08T01:26:23;-1.60;99.90
22813;DHT22;11573;51.334;3.244;2023-02-08T01:28:52;-1.60;99.90
22813;DHT22;11573;51.334;3.244;2023-02-08T01:31:28;-1.60;99.90
22813;DHT22;11573;51.334;3.244;2023-02-08T01:33:56;-1.70;99.90
22813;DHT22;11573;51.334;3.244;2023-02-08T01:36:24;-1.70;99.90
22813;DHT22;11573;51.334;3.244;2023-02-08T01:38:52;-1.70;99.90
22813;DHT22;11573;51.334;3.244;2023-02-08T01:41:28;-1.70;99.90
22813;DHT22;11573;51.334;3.244;2023-02-08T01:46:46;-1.70;99.90
22813;DHT22;11573;51.334;3.244;2023-02-08T01:51:57;-1.80;99.90
22813;DHT22;11573;51.334;3.244;2023-02-08T01:54:31;-1.70;99.90
22813;DHT22;11573;51.334;3.244;2023-02-08T01:57:01;-1.80;99.90
22813;DHT22;11573;51.334;3.244;2023-02-08T01:59:35;-1.70;99.90
22813;DHT22;11573;51.334;3.244;2023-02-08T02:02:08;-1.70;99.90
22813;DHT22;11573;51.334;3.244;2023-02-08T02:04:37;-1.70;99.90
22813;DHT22;11573;51.334;3.244;2023-02-08T02:07:05;-1.70;99.90
22813;DHT22;11573;51.334;3.244;2023-02-08T02:09:52;-1.70;99.90
22813;DHT22;11573;51.334;3.244;2023-02-08T02:12:20;-1.70;99.90
22813;DHT22;11573;51.334;3.244;2023-02-08T02:14:49;-1.70;99.90
22813;DHT22;11573;51.334;3.244;2023-02-08T02:17:18;-1.70;99.90
22813;DHT22;11573;51.334;3.244;2023-02-08T02:19:54;-1.70;99.90
22813;DHT22;11573;51.334;3.244;2023-02-08T02:36:16;-1.80;99.90
22813;DHT22;11573;51.334;3.244;2023-02-08T02:39:20;-1.80;99.90
22813;DHT22;11573;51.334;3.244;2023-02-08T02:42:22;-1.80;99.90
22813;DHT22;11573;51.334;3.244;2023-02-08T02:47:53;-1.70;99.90
22813;DHT22;11573;51.334;3.244;2023-02-08T02:50:47;-1.70;99.90
22813;DHT22;11573;51.334;3.244;2023-02-08T02:53:28;-1.80;99.90
22813;DHT22;11573;51.334;3.244;2023-02-08T02:56:02;-1.80;99.90
22813;DHT22;11573;51.334;3.244;2023-02-08T02:58:32;-1.90;99.90
22813;DHT22;11573;51.334;3.244;2023-02-08T03:00:59;-1.90;99.90
22813;DHT22;11573;51.334;3.244;2023-02-08T03:03:30;-1.90;99.90
22813;DHT22;11573;51.334;3.244;2023-02-08T03:06:11;-1.90;99.90
22813;DHT22;11573;51.334;3.244;2023-02-08T03:11:21;-1.90;99.90
22813;DHT22;11573;51.334;3.244;2023-02-08T03:14:22;-1.90;99.90
22813;DHT22;11573;51.334;3.244;2023-02-08T03:19:39;-1.90;99.90
22813;DHT22;11573;51.334;3.244;2023-02-08T03:22:14;-1.90;99.90
22813;DHT22;11573;51.334;3.244;2023-02-08T03:30:09;-2.00;99.90
22813;DHT22;11573;51.334;3.244;2023-02-08T03:32:49;-2.00;99.90
22813;DHT22;11573;51.334;3.244;2023-02-08T03:40:29;-2.10;99.90
22813;DHT22;11573;51.334;3.244;2023-02-08T03:43:01;-2.20;99.90
22813;DHT22;11573;51.334;3.244;2023-02-08T03:45:36;-2.20;99.90
22813;DHT22;11573;51.334;3.244;2023-02-08T03:48:07;-2.10;99.90
22813;DHT22;11573;51.334;3.244;2023-02-08T03:50:38;-2.20;99.90
22813;DHT22;11573;51.334;3.244;2023-02-08T03:53:07;-2.20;99.90
22813;DHT22;11573;51.334;3.244;2023-02-08T03:55:36;-2.20;99.90
22813;DHT22;11573;51.334;3.244;2023-02-08T03:58:19;-2.20;99.90
22813;DHT22;11573;51.334;3.244;2023-02-08T04:01:02;-2.10;99.90
22813;DHT22;11573;51.334;3.244;2023-02-08T04:03:32;-2.10;99.90
22813;DHT22;11573;51.334;3.244;2023-02-08T04:05:59;-2.20;99.90
22813;DHT22;11573;51.334;3.244;2023-02-08T04:08:26;-2.10;99.90
22813;DHT22;11573;51.334;3.244;2023-02-08T04:10:54;-2.10;99.90
22813;DHT22;11573;51.334;3.244;2023-02-08T04:13:21;-2.20;99.90
22813;DHT22;11573;51.334;3.244;2023-02-08T04:15:48;-2.10;99.90
22813;DHT22;11573;51.334;3.244;2023-02-08T04:18:15;-2.20;99.90
22813;DHT22;11573;51.334;3.244;2023-02-08T04:20:42;-2.20;99.90
22813;DHT22;11573;51.334;3.244;2023-02-08T04:23:10;-2.20;99.90
22813;DHT22;11573;51.334;3.244;2023-02-08T04:25:36;-2.20;99.90
22813;DHT22;11573;51.334;3.244;2023-02-08T04:28:04;-2.20;99.90
22813;DHT22;11573;51.334;3.244;2023-02-08T04:30:31;-2.10;99.90
22813;DHT22;11573;51.334;3.244;2023-02-08T04:32:58;-2.20;99.90
22813;DHT22;11573;51.334;3.244;2023-02-08T04:35:26;-2.20;99.90
22813;DHT22;11573;51.334;3.244;2023-02-08T04:37:53;-2.20;99.90
22813;DHT22;11573;51.334;3.244;2023-02-08T04:40:20;-2.20;99.90
22813;DHT22;11573;51.334;3.244;2023-02-08T04:42:47;-2.20;99.90
22813;DHT22;11573;51.334;3.244;2023-02-08T04:45:14;-2.30;99.90
22813;DHT22;11573;51.334;3.244;2023-02-08T04:47:41;-2.40;99.90
22813;DHT22;11573;51.334;3.244;2023-02-08T04:50:08;-2.40;99.90
22813;DHT22;11573;51.334;3.244;2023-02-08T04:52:35;-2.40;99.90
22813;DHT22;11573;51.334;3.244;2023-02-08T04:55:02;-2.40;99.90
22813;DHT22;11573;51.334;3.244;2023-02-08T04:57:30;-2.40;99.90
22813;DHT22;11573;51.334;3.244;2023-02-08T04:59:57;-2.40;99.90
22813;DHT22;11573;51.334;3.244;2023-02-08T05:02:26;-2.40;99.90
22813;DHT22;11573;51.334;3.244;2023-02-08T05:04:53;-2.40;99.90
22813;DHT22;11573;51.334;3.244;2023-02-08T05:07:20;-2.40;99.90
22813;DHT22;11573;51.334;3.244;2023-02-08T05:09:47;-2.40;99.90
22813;DHT22;11573;51.334;3.244;2023-02-08T05:12:14;-2.40;99.90
22813;DHT22;11573;51.334;3.244;2023-02-08T05:14:41;-2.50;99.90
22813;DHT22;11573;51.334;3.244;2023-02-08T05:17:08;-2.50;99.90
22813;DHT22;11573;51.334;3.244;2023-02-08T05:19:35;-2.40;99.90
22813;DHT22;11573;51.334;3.244;2023-02-08T05:22:02;-2.50;99.90
22813;DHT22;11573;51.334;3.244;2023-02-08T05:24:29;-2.40;99.90
22813;DHT22;11573;51.334;3.244;2023-02-08T05:26:57;-2.50;99.90
22813;DHT22;11573;51.334;3.244;2023-02-08T05:29:23;-2.50;99.90
22813;DHT22;11573;51.334;3.244;2023-02-08T05:31:50;-2.50;99.90
22813;DHT22;11573;51.334;3.244;2023-02-08T05:34:18;-2.50;99.90
22813;DHT22;11573;51.334;3.244;2023-02-08T05:36:45;-2.60;99.90
22813;DHT22;11573;51.334;3.244;2023-02-08T05:39:12;-2.60;99.90
22813;DHT22;11573;51.334;3.244;2023-02-08T05:41:39;-2.60;99.90
22813;DHT22;11573;51.334;3.244;2023-02-08T05:44:06;-2.60;99.90
22813;DHT22;11573;51.334;3.244;2023-02-08T05:46:32;-2.60;99.90
22813;DHT22;11573;51.334;3.244;2023-02-08T05:49:03;-2.60;99.90
22813;DHT22;11573;51.334;3.244;2023-02-08T05:51:30;-2.60;99.90
22813;DHT22;11573;51.334;3.244;2023-02-08T05:53:57;-2.60;99.90
22813;DHT22;11573;51.334;3.244;2023-02-08T05:56:24;-2.60;99.90
22813;DHT22;11573;51.334;3.244;2023-02-08T05:58:52;-2.60;99.90
22813;DHT22;11573;51.334;3.244;2023-02-08T06:01:19;-2.60;99.90
22813;DHT22;11573;51.334;3.244;2023-02-08T06:03:46;-2.60;99.90
22813;DHT22;11573;51.334;3.244;2023-02-08T06:06:13;-2.60;99.90
22813;DHT22;11573;51.334;3.244;2023-02-08T06:08:40;-2.70;99.90
22813;DHT22;11573;51.334;3.244;2023-02-08T06:11:08;-2.70;99.90
22813;DHT22;11573;51.334;3.244;2023-02-08T06:13:35;-2.70;99.90
22813;DHT22;11573;51.334;3.244;2023-02-08T06:16:02;-2.70;99.90
22813;DHT22;11573;51.334;3.244;2023-02-08T06:18:29;-2.70;99.90
22813;DHT22;11573;51.334;3.244;2023-02-08T06:20:56;-2.70;99.90
22813;DHT22;11573;51.334;3.244;2023-02-08T06:23:23;-2.70;99.90
22813;DHT22;11573;51.334;3.244;2023-02-08T06:25:50;-2.70;99.90
22813;DHT22;11573;51.334;3.244;2023-02-08T06:28:17;-2.70;99.90
22813;DHT22;11573;51.334;3.244;2023-02-08T06:30:44;-2.70;99.90
22813;DHT22;11573;51.334;3.244;2023-02-08T06:33:11;-2.60;99.90
22813;DHT22;11573;51.334;3.244;2023-02-08T06:35:49;-2.70;99.90
22813;DHT22;11573;51.334;3.244;2023-02-08T06:38:16;-2.70;99.90
22813;DHT22;11573;51.334;3.244;2023-02-08T06:40:46;-2.70;99.90
22813;DHT22;11573;51.334;3.244;2023-02-08T06:43:13;-2.70;99.90
22813;DHT22;11573;51.334;3.244;2023-02-08T06:45:43;-2.70;99.90
22813;DHT22;11573;51.334;3.244;2023-02-08T06:48:11;-2.70;99.90
22813;DHT22;11573;51.334;3.244;2023-02-08T06:50:38;-2.70;99.90
22813;DHT22;11573;51.334;3.244;2023-02-08T06:53:06;-2.70;99.90
22813;DHT22;11573;51.334;3.244;2023-02-08T06:55:33;-2.70;99.90
22813;DHT22;11573;51.334;3.244;2023-02-08T06:58:00;-2.70;99.90
22813;DHT22;11573;51.334;3.244;2023-02-08T07:00:27;-2.70;99.90
22813;DHT22;11573;51.334;3.244;2023-02-08T07:02:54;-2.70;99.90
22813;DHT22;11573;51.334;3.244;2023-02-08T07:05:21;-2.80;99.90
22813;DHT22;11573;51.334;3.244;2023-02-08T07:07:48;-2.70;99.90
22813;DHT22;11573;51.334;3.244;2023-02-08T07:10:15;-2.70;99.90
22813;DHT22;11573;51.334;3.244;2023-02-08T07:12:42;-2.70;99.90
22813;DHT22;11573;51.334;3.244;2023-02-08T07:15:09;-2.70;99.90
22813;DHT22;11573;51.334;3.244;2023-02-08T07:17:39;-2.70;99.90
22813;DHT22;11573;51.334;3.244;2023-02-08T07:20:07;-2.70;99.90
22813;DHT22;11573;51.334;3.244;2023-02-08T07:22:34;-2.60;99.90
22813;DHT22;11573;51.334;3.244;2023-02-08T07:25:01;-2.60;99.90
22813;DHT22;11573;51.334;3.244;2023-02-08T07:27:28;-2.50;99.90
22813;DHT22;11573;51.334;3.244;2023-02-08T07:29:55;-2.50;99.90
22813;DHT22;11573;51.334;3.244;2023-02-08T07:32:21;-2.50;99.90
22813;DHT22;11573;51.334;3.244;2023-02-08T07:34:48;-2.40;99.90
22813;DHT22;11573;51.334;3.244;2023-02-08T07:37:16;-2.50;99.90
22813;DHT22;11573;51.334;3.244;2023-02-08T07:39:43;-2.50;99.90
22813;DHT22;11573;51.334;3.244;2023-02-08T07:42:10;-2.40;99.90
22813;DHT22;11573;51.334;3.244;2023-02-08T07:44:50;-2.40;99.90
22813;DHT22;11573;51.334;3.244;2023-02-08T07:47:17;-2.30;99.90
22813;DHT22;11573;51.334;3.244;2023-02-08T07:49:44;-2.30;99.90
22813;DHT22;11573;51.334;3.244;2023-02-08T07:52:11;-2.20;99.90
22813;DHT22;11573;51.334;3.244;2023-02-08T07:54:38;-2.10;99.90
22813;DHT22;11573;51.334;3.244;2023-02-08T07:57:05;-2.00;99.90
22813;DHT22;11573;51.334;3.244;2023-02-08T07:59:32;-2.00;99.90
22813;DHT22;11573;51.334;3.244;2023-02-08T08:01:59;-1.90;99.90
22813;DHT22;11573;51.334;3.244;2023-02-08T08:04:26;-1.80;99.90
22813;DHT22;11573;51.334;3.244;2023-02-08T08:06:54;-1.60;99.90
22813;DHT22;11573;51.334;3.244;2023-02-08T08:09:21;-1.50;99.90
22813;DHT22;11573;51.334;3.244;2023-02-08T08:11:49;-1.40;99.90
22813;DHT22;11573;51.334;3.244;2023-02-08T08:14:17;-1.40;99.90
22813;DHT22;11573;51.334;3.244;2023-02-08T08:16:44;-1.40;99.90
22813;DHT22;11573;51.334;3.244;2023-02-08T08:19:11;-1.30;99.90
22813;DHT22;11573;51.334;3.244;2023-02-08T08:21:38;-1.20;99.90
22813;DHT22;11573;51.334;3.244;2023-02-08T08:24:05;-1.10;99.90
22813;DHT22;11573;51.334;3.244;2023-02-08T08:26:32;-0.90;99.90
22813;DHT22;11573;51.334;3.244;2023-02-08T08:29:00;-0.90;99.90
22813;DHT22;11573;51.334;3.244;2023-02-08T08:31:29;-0.80;99.90
22813;DHT22;11573;51.334;3.244;2023-02-08T08:33:56;-0.70;99.90
22813;DHT22;11573;51.334;3.244;2023-02-08T08:36:23;-0.60;99.90
22813;DHT22;11573;51.334;3.244;2023-02-08T08:38:50;-0.50;99.90
22813;DHT22;11573;51.334;3.244;2023-02-08T08:41:17;-0.40;99.90
22813;DHT22;11573;51.334;3.244;2023-02-08T08:43:45;-0.40;99.90
22813;DHT22;11573;51.334;3.244;2023-02-08T08:46:12;-0.30;99.90
22813;DHT22;11573;51.334;3.244;2023-02-08T08:48:40;-0.20;99.90
22813;DHT22;11573;51.334;3.244;2023-02-08T08:51:07;-0.10;99.90
22813;DHT22;11573;51.334;3.244;2023-02-08T08:53:35;0.00;99.90
22813;DHT22;11573;51.334;3.244;2023-02-08T08:56:04;0.10;99.90
22813;DHT22;11573;51.334;3.244;2023-02-08T08:58:31;0.20;99.90
22813;DHT22;11573;51.334;3.244;2023-02-08T09:00:59;0.30;99.90
22813;DHT22;11573;51.334;3.244;2023-02-08T09:03:27;0.30;99.90
22813;DHT22;11573;51.334;3.244;2023-02-08T09:05:55;0.50;99.90
22813;DHT22;11573;51.334;3.244;2023-02-08T09:08:22;0.50;99.90
22813;DHT22;11573;51.334;3.244;2023-02-08T09:10:49;0.50;99.90
22813;DHT22;11573;51.334;3.244;2023-02-08T09:13:16;0.70;99.90
22813;DHT22;11573;51.334;3.244;2023-02-08T09:15:46;0.80;99.90
22813;DHT22;11573;51.334;3.244;2023-02-08T09:18:14;0.80;99.90
22813;DHT22;11573;51.334;3.244;2023-02-08T09:20:41;0.90;99.90
22813;DHT22;11573;51.334;3.244;2023-02-08T09:23:09;0.90;99.90
22813;DHT22;11573;51.334;3.244;2023-02-08T09:25:36;0.90;99.90
22813;DHT22;11573;51.334;3.244;2023-02-08T09:28:03;1.00;99.90
22813;DHT22;11573;51.334;3.244;2023-02-08T09:30:31;1.00;99.90
22813;DHT22;11573;51.334;3.244;2023-02-08T09:32:58;1.10;99.90
22813;DHT22;11573;51.334;3.244;2023-02-08T09:35:25;1.10;99.90
22813;DHT22;11573;51.334;3.244;2023-02-08T09:37:53;1.20;99.90
22813;DHT22;11573;51.334;3.244;2023-02-08T09:40:27;1.30;99.90
22813;DHT22;11573;51.334;3.244;2023-02-08T09:43:12;1.30;99.90
22813;DHT22;11573;51.334;3.244;2023-02-08T09:48:37;1.60;99.90
22813;DHT22;11573;51.334;3.244;2023-02-08T09:53:52;1.70;99.90
22813;DHT22;11573;51.334;3.244;2023-02-08T09:56:27;1.70;99.90
22813;DHT22;11573;51.334;3.244;2023-02-08T09:58:56;1.70;99.90
22813;DHT22;11573;51.334;3.244;2023-02-08T10:01:27;1.90;99.90
22813;DHT22;11573;51.334;3.244;2023-02-08T10:06:28;2.10;99.90
22813;DHT22;11573;51.334;3.244;2023-02-08T10:09:02;2.00;99.90
22813;DHT22;11573;51.334;3.244;2023-02-08T10:16:54;2.20;99.90
22813;DHT22;11573;51.334;3.244;2023-02-08T10:34:34;2.80;99.90
22813;DHT22;11573;51.334;3.244;2023-02-08T10:36:51;2.90;99.90
22813;DHT22;11573;51.334;3.244;2023-02-08T10:39:25;3.00;99.90
22813;DHT22;11573;51.334;3.244;2023-02-08T10:41:54;3.00;99.90
22813;DHT22;11573;51.334;3.244;2023-02-08T10:44:35;3.00;99.90
22813;DHT22;11573;51.334;3.244;2023-02-08T10:50:01;3.20;99.90
22813;DHT22;11573;51.334;3.244;2023-02-08T10:52:29;3.30;99.90
22813;DHT22;11573;51.334;3.244;2023-02-08T10:54:57;3.40;99.90
22813;DHT22;11573;51.334;3.244;2023-02-08T10:57:31;3.50;99.90
22813;DHT22;11573;51.334;3.244;2023-02-08T11:00:04;3.60;99.90
22813;DHT22;11573;51.334;3.244;2023-02-08T11:02:34;3.80;99.90
22813;DHT22;11573;51.334;3.244;2023-02-08T11:05:19;3.80;99.90
22813;DHT22;11573;51.334;3.244;2023-02-08T11:07:46;3.90;99.90
22813;DHT22;11573;51.334;3.244;2023-02-08T11:13:05;4.00;99.90
22813;DHT22;11573;51.334;3.244;2023-02-08T11:15:37;3.90;99.90
22813;DHT22;11573;51.334;3.244;2023-02-08T11:18:06;4.10;99.90
22813;DHT22;11573;51.334;3.244;2023-02-08T11:20:41;4.20;99.90
22813;DHT22;11573;51.334;3.244;2023-02-08T11:23:23;4.30;99.90
22813;DHT22;11573;51.334;3.244;2023-02-08T11:25:52;4.30;99.90
22813;DHT22;11573;51.334;3.244;2023-02-08T11:28:26;4.40;99.90
22813;DHT22;11573;51.334;3.244;2023-02-08T11:31:01;4.60;99.90
22813;DHT22;11573;51.334;3.244;2023-02-08T11:33:29;4.70;99.90
22813;DHT22;11573;51.334;3.244;2023-02-08T11:36:03;4.80;99.90
22813;DHT22;11573;51.334;3.244;2023-02-08T11:38:33;4.90;99.90
22813;DHT22;11573;51.334;3.244;2023-02-08T11:41:03;4.80;99.90
22813;DHT22;11573;51.334;3.244;2023-02-08T11:43:33;4.90;99.90
22813;DHT22;11573;51.334;3.244;2023-02-08T11:46:03;4.80;99.90
22813;DHT22;11573;51.334;3.244;2023-02-08T11:48:48;5.00;99.90
22813;DHT22;11573;51.334;3.244;2023-02-08T11:51:34;5.10;97.30
22813;DHT22;11573;51.334;3.244;2023-02-08T11:54:03;5.20;99.90
22813;DHT22;11573;51.334;3.244;2023-02-08T11:56:33;5.20;99.90
22813;DHT22;11573;51.334;3.244;2023-02-08T11:59:20;5.20;99.90
22813;DHT22;11573;51.334;3.244;2023-02-08T12:01:48;5.40;99.90
22813;DHT22;11573;51.334;3.244;2023-02-08T12:04:16;5.40;99.90
22813;DHT22;11573;51.334;3.244;2023-02-08T12:10:14;5.50;99.90
22813;DHT22;11573;51.334;3.244;2023-02-08T12:13:05;5.60;99.90
22813;DHT22;11573;51.334;3.244;2023-02-08T12:15:51;5.60;99.90
22813;DHT22;11573;51.334;3.244;2023-02-08T12:29:37;5.80;99.90
22813;DHT22;11573;51.334;3.244;2023-02-08T12:41:29;6.20;99.90
22813;DHT22;11573;51.334;3.244;2023-02-08T12:44:12;6.20;99.90
22813;DHT22;11573;51.334;3.244;2023-02-08T12:47:02;6.30;99.90
22813;DHT22;11573;51.334;3.244;2023-02-08T12:52:43;6.40;99.90
22813;DHT22;11573;51.334;3.244;2023-02-08T12:55:33;6.30;99.90
22813;DHT22;11573;51.334;3.244;2023-02-08T12:58:27;6.50;99.90
22813;DHT22;11573;51.334;3.244;2023-02-08T13:01:10;6.60;99.90
22813;DHT22;11573;51.334;3.244;2023-02-08T13:06:42;6.70;99.90
22813;DHT22;11573;51.334;3.244;2023-02-08T13:12:21;6.80;99.90
22813;DHT22;11573;51.334;3.244;2023-02-08T13:14:53;6.80;99.90
22813;DHT22;11573;51.334;3.244;2023-02-08T13:17:35;6.80;99.90
22813;DHT22;11573;51.334;3.244;2023-02-08T13:20:29;6.80;99.90
22813;DHT22;11573;51.334;3.244;2023-02-08T13:23:03;6.90;99.90
22813;DHT22;11573;51.334;3.244;2023-02-08T13:25:34;7.00;99.90
22813;DHT22;11573;51.334;3.244;2023-02-08T13:28:04;7.00;99.90
22813;DHT22;11573;51.334;3.244;2023-02-08T13:30:34;7.00;99.90
22813;DHT22;11573;51.334;3.244;2023-02-08T13:33:16;7.00;99.90
22813;DHT22;11573;51.334;3.244;2023-02-08T13:35:49;6.90;99.90
22813;DHT22;11573;51.334;3.244;2023-02-08T13:38:29;6.80;99.90
22813;DHT22;11573;51.334;3.244;2023-02-08T13:41:22;6.80;99.90
22813;DHT22;11573;51.334;3.244;2023-02-08T13:43:53;6.90;99.90
22813;DHT22;11573;51.334;3.244;2023-02-08T13:46:24;6.90;99.90
22813;DHT22;11573;51.334;3.244;2023-02-08T13:48:55;6.90;99.90
22813;DHT22;11573;51.334;3.244;2023-02-08T13:56:47;7.10;99.90
22813;DHT22;11573;51.334;3.244;2023-02-08T13:59:28;7.20;99.90
22813;DHT22;11573;51.334;3.244;2023-02-08T14:04:45;7.30;99.90
22813;DHT22;11573;51.334;3.244;2023-02-08T14:07:39;7.30;99.90
22813;DHT22;11573;51.334;3.244;2023-02-08T14:10:29;7.20;99.90
22813;DHT22;11573;51.334;3.244;2023-02-08T14:13:15;7.30;99.90
22813;DHT22;11573;51.334;3.244;2023-02-08T14:16:25;7.40;99.90
22813;DHT22;11573;51.334;3.244;2023-02-08T14:18:56;7.30;99.90
22813;DHT22;11573;51.334;3.244;2023-02-08T14:21:37;7.30;99.90
22813;DHT22;11573;51.334;3.244;2023-02-08T14:24:29;7.50;99.90
22813;DHT22;11573;51.334;3.244;2023-02-08T14:29:43;7.50;99.90
22813;DHT22;11573;51.334;3.244;2023-02-08T14:32:24;7.40;99.90
22813;DHT22;11573;51.334;3.244;2023-02-08T14:35:07;7.40;99.90
22813;DHT22;11573;51.334;3.244;2023-02-08T14:37:35;7.50;99.90
22813;DHT22;11573;51.334;3.244;2023-02-08T14:45:49;7.30;99.90
22813;DHT22;11573;51.334;3.244;2023-02-08T14:53:41;7.30;99.90
22813;DHT22;11573;51.334;3.244;2023-02-08T14:56:53;7.50;99.90
22813;DHT22;11573;51.334;3.244;2023-02-08T14:59:18;7.40;99.90
22813;DHT22;11573;51.334;3.244;2023-02-08T15:01:53;7.30;99.90
22813;DHT22;11573;51.334;3.244;2023-02-08T15:04:22;7.30;99.90
22813;DHT22;11573;51.334;3.244;2023-02-08T15:09:29;7.20;99.90
22813;DHT22;11573;51.334;3.244;2023-02-08T15:14:34;7.30;99.90
22813;DHT22;11573;51.334;3.244;2023-02-08T15:17:02;7.20;99.90
22813;DHT22;11573;51.334;3.244;2023-02-08T15:19:33;7.20;99.90
22813;DHT22;11573;51.334;3.244;2023-02-08T15:22:37;7.30;99.90
22813;DHT22;11573;51.334;3.244;2023-02-08T15:27:50;7.10;99.90
22813;DHT22;11573;51.334;3.244;2023-02-08T15:30:23;7.00;99.90
22813;DHT22;11573;51.334;3.244;2023-02-08T15:32:50;6.80;99.90
22813;DHT22;11573;51.334;3.244;2023-02-08T15:35:20;6.70;99.90
22813;DHT22;11573;51.334;3.244;2023-02-08T15:37:49;6.70;99.90
22813;DHT22;11573;51.334;3.244;2023-02-08T15:40:28;6.50;99.90
22813;DHT22;11573;51.334;3.244;2023-02-08T15:45:35;6.40;99.90
22813;DHT22;11573;51.334;3.244;2023-02-08T15:48:05;6.30;99.90
22813;DHT22;11573;51.334;3.244;2023-02-08T15:50:32;6.10;99.90
22813;DHT22;11573;51.334;3.244;2023-02-08T15:53:05;6.00;99.90
22813;DHT22;11573;51.334;3.244;2023-02-08T15:55:42;5.80;99.90
22813;DHT22;11573;51.334;3.244;2023-02-08T15:58:26;5.70;99.90
22813;DHT22;11573;51.334;3.244;2023-02-08T16:00:57;5.60;99.90
22813;DHT22;11573;51.334;3.244;2023-02-08T16:03:25;5.50;99.90
22813;DHT22;11573;51.334;3.244;2023-02-08T16:05:56;5.40;99.90
22813;DHT22;11573;51.334;3.244;2023-02-08T16:08:28;5.30;99.90
22813;DHT22;11573;51.334;3.244;2023-02-08T16:11:07;5.10;99.90
22813;DHT22;11573;51.334;3.244;2023-02-08T16:13:37;5.00;99.90
22813;DHT22;11573;51.334;3.244;2023-02-08T16:18:57;4.80;99.90
22813;DHT22;11573;51.334;3.244;2023-02-08T16:21:26;4.80;99.90
22813;DHT22;11573;51.334;3.244;2023-02-08T16:24:03;4.70;99.90
22813;DHT22;11573;51.334;3.244;2023-02-08T16:26:42;4.70;99.90
22813;DHT22;11573;51.334;3.244;2023-02-08T16:31:46;4.40;99.90
22813;DHT22;11573;51.334;3.244;2023-02-08T16:34:16;4.40;99.90
22813;DHT22;11573;51.334;3.244;2023-02-08T16:36:52;4.20;99.90
22813;DHT22;11573;51.334;3.244;2023-02-08T16:39:24;4.20;99.90
22813;DHT22;11573;51.334;3.244;2023-02-08T16:42:19;4.10;99.90
22813;DHT22;11573;51.334;3.244;2023-02-08T16:47:42;3.90;99.90
22813;DHT22;11573;51.334;3.244;2023-02-08T16:50:17;3.80;99.90
22813;DHT22;11573;51.334;3.244;2023-02-08T16:52:47;3.80;99.90
22813;DHT22;11573;51.334;3.244;2023-02-08T16:55:24;3.60;99.90
22813;DHT22;11573;51.334;3.244;2023-02-08T16:57:53;3.50;99.90
22813;DHT22;11573;51.334;3.244;2023-02-08T17:02:48;3.20;99.90
22813;DHT22;11573;51.334;3.244;2023-02-08T17:05:17;3.00;99.90
22813;DHT22;11573;51.334;3.244;2023-02-08T17:07:45;2.90;99.90
22813;DHT22;11573;51.334;3.244;2023-02-08T17:10:22;2.70;99.90
22813;DHT22;11573;51.334;3.244;2023-02-08T17:12:51;2.60;99.90
22813;DHT22;11573;51.334;3.244;2023-02-08T17:15:27;2.60;99.90
22813;DHT22;11573;51.334;3.244;2023-02-08T17:17:55;2.50;99.90
22813;DHT22;11573;51.334;3.244;2023-02-08T17:20:29;2.50;99.90
22813;DHT22;11573;51.334;3.244;2023-02-08T17:22:58;2.40;99.90
22813;DHT22;11573;51.334;3.244;2023-02-08T17:25:27;2.40;99.90
22813;DHT22;11573;51.334;3.244;2023-02-08T17:27:56;2.30;99.90
22813;DHT22;11573;51.334;3.244;2023-02-08T17:30:26;2.20;99.90
22813;DHT22;11573;51.334;3.244;2023-02-08T17:32:54;2.20;99.90
22813;DHT22;11573;51.334;3.244;2023-02-08T17:35:26;2.20;99.90
22813;DHT22;11573;51.334;3.244;2023-02-08T17:37:55;2.20;99.90
22813;DHT22;11573;51.334;3.244;2023-02-08T17:40:31;2.10;99.90
22813;DHT22;11573;51.334;3.244;2023-02-08T17:42:59;2.00;99.90
22813;DHT22;11573;51.334;3.244;2023-02-08T17:45:27;2.00;99.90
22813;DHT22;11573;51.334;3.244;2023-02-08T17:47:58;1.90;99.90
22813;DHT22;11573;51.334;3.244;2023-02-08T17:50:26;1.90;99.90
22813;DHT22;11573;51.334;3.244;2023-02-08T17:52:53;1.80;99.90
22813;DHT22;11573;51.334;3.244;2023-02-08T17:55:21;1.70;99.90
22813;DHT22;11573;51.334;3.244;2023-02-08T17:57:49;1.80;99.90
22813;DHT22;11573;51.334;3.244;2023-02-08T18:00:18;1.90;99.90
22813;DHT22;11573;51.334;3.244;2023-02-08T18:02:47;1.90;99.90
22813;DHT22;11573;51.334;3.244;2023-02-08T18:05:17;1.80;99.90
22813;DHT22;11573;51.334;3.244;2023-02-08T18:07:45;1.60;99.90
22813;DHT22;11573;51.334;3.244;2023-02-08T18:10:13;1.60;99.90
22813;DHT22;11573;51.334;3.244;2023-02-08T18:12:41;1.40;99.90
22813;DHT22;11573;51.334;3.244;2023-02-08T18:15:11;1.30;99.90
22813;DHT22;11573;51.334;3.244;2023-02-08T18:17:38;1.20;99.90
22813;DHT22;11573;51.334;3.244;2023-02-08T18:20:06;1.10;99.90
22813;DHT22;11573;51.334;3.244;2023-02-08T18:22:34;1.10;99.90
22813;DHT22;11573;51.334;3.244;2023-02-08T18:25:03;1.00;99.90
22813;DHT22;11573;51.334;3.244;2023-02-08T18:27:30;1.00;99.90
22813;DHT22;11573;51.334;3.244;2023-02-08T18:29:57;1.00;99.90